KFYM/FYM METAR and TAF weather

Enter ICAO airport designator
Station Type Date Time Source
KFYM METAR 2020/09/22 22:35 UTC NOAA

KFYM 222235Z AUTO 02004KT 10SM CLR 21/10 A3017 RMK A01


Station Type Date Time Source
KFYM Decoded METAR 2020/09/22 22:35 UTC NOAA

Station name not available
Sep 22, 2020 - 06:35 PM EDT / 2020.09.22 2235 UTC
Wind: from the NNE (020 degrees) at 5 MPH (4 KT):0
Visibility: 10 mile(s):0
Sky conditions: clear
Temperature: 69 F (21 C)
Dew Point: 50 F (10 C)
Relative Humidity: 49%
Pressure (altimeter): 30.17 in. Hg (1021 hPa)
ob: KFYM 222235Z AUTO 02004KT 10SM CLR 21/10 A3017 RMK A01
cycle: 22

Station Type Date Time Source
KFYM TAF 2009/08/31 19:45 UTC NOAA

METAR KFYM 311945Z AUTO 01006KT 10SM CLR 26/11 A3009
RMK AO1 T02550111 $

Example: see airport list